CheckWX is a tool to help pilots better visualize weather data.  It is not intended as a substitute for an official pre-flight weather briefing.

09:26:08 UTC

KAOH METAR
Lima Allen County Airport
Lima, Ohio, USA
Current

23 mins ago

KAOH 200903Z AUTO 11008KT 1 1/2SM -SN BR SCT019 OVC027 M02/M04 A3023 RMK AO2 P0001 T10221039
Observed
Feb-20 @ 09:03 UTC
Wind
  • 110° at 8 KTS
Visibility
2,414 meters
Flight Rules
IFR
Conditions
Light Snow, Mist
Cloud Levels
  • Scattered at 1,900' AGL
  • Overcast at 2,700' AGL
Temperature
-2°C / 28°F
Dewpoint
-4°C / 25°F
Humidity
86%
Altimeter
30.23" Hg
Pressure
1023.72 hPa
Current Rain
0.01"
Previous

33 mins ago

KAOH 200853Z AUTO 11009KT 2SM -SN BR FEW019 OVC029 M02/M04 A3023 RMK AO2 SNB06 SLP247 P0000 60000 T10171039 58034
Observed
Feb-20 @ 08:53 UTC
Wind
  • 110° at 9 KTS
Visibility
3,219 meters
Flight Rules
IFR
Conditions
Light Snow, Mist
Cloud Levels
  • Few at 1,900' AGL
  • Overcast at 2,900' AGL
Temperature
-2°C / 28°F
Dewpoint
-4°C / 25°F
Humidity
86%
Altimeter
30.23" Hg
Pressure
1024.7 hPa
Current Rain
0.01"
Previous

40 mins ago

KAOH 200846Z AUTO 11009KT 2SM -SN BR BKN019 OVC031 M02/M04 A3023 RMK AO2 SNB06 P0000 T10171039
Observed
Feb-20 @ 08:46 UTC
Wind
  • 110° at 9 KTS
Visibility
3,219 meters
Flight Rules
IFR
Conditions
Light Snow, Mist
Cloud Levels
  • Broken at 1,900' AGL
  • Overcast at 3,100' AGL
Temperature
-2°C / 28°F
Dewpoint
-4°C / 25°F
Humidity
86%
Altimeter
30.23" Hg
Pressure
1023.72 hPa
Current Rain
0.01"